Aviation Digital Data Service (ADDS)

Output produced by METARs form (2330 UTC 18 August 2019)
found at http://www.aviationweather.gov/metar/data/
 
METAR text: HELX 182300Z 00000KT CAVOK 30/17 Q1007 NOSIG
Conditions at: HELX (LUXOR (CIV/MIL) , EG) observed 2300 UTC 18 August 2019
Temperature: 30.0°C (86°F)
Dewpoint: 17.0°C (63°F) [RH = 46%]
Pressure (altimeter): 29.73 inches Hg (1007.0 mb)
Winds: calm
Visibility: 6 or more miles (10+ km)
Ceiling: ceiling and visibility are OK
Clouds: unknown
Weather: no significant weather observed at this time

METAR text: HELX 182200Z 25004KT CAVOK 31/17 Q1007 NOSIG
Conditions at: HELX (LUXOR (CIV/MIL) , EG) observed 2200 UTC 18 August 2019
Temperature: 31.0°C (88°F)
Dewpoint: 17.0°C (63°F) [RH = 43%]
Pressure (altimeter): 29.73 inches Hg (1007.0 mb)
Winds: from the WSW (250 degrees) at 5 MPH (4 knots; 2.1 m/s)
Visibility: 6 or more miles (10+ km)
Ceiling: ceiling and visibility are OK
Clouds: unknown
Weather: no significant weather observed at this time

METAR text: HELX 182100Z 30010KT CAVOK 33/16 Q1007 NOSIG
Conditions at: HELX (LUXOR (CIV/MIL) , EG) observed 2100 UTC 18 August 2019
Temperature: 33.0°C (91°F)
Dewpoint: 16.0°C (61°F) [RH = 36%]
Pressure (altimeter): 29.73 inches Hg (1007.0 mb)
Winds: from the WNW (300 degrees) at 12 MPH (10 knots; 5.1 m/s)
Visibility: 6 or more miles (10+ km)
Ceiling: ceiling and visibility are OK
Clouds: unknown
Weather: no significant weather observed at this time

METAR text: HELX 182000Z 31008KT CAVOK 33/16 Q1007 NOSIG
Conditions at: HELX (LUXOR (CIV/MIL) , EG) observed 2000 UTC 18 August 2019
Temperature: 33.0°C (91°F)
Dewpoint: 16.0°C (61°F) [RH = 36%]
Pressure (altimeter): 29.73 inches Hg (1007.0 mb)
Winds: from the NW (310 degrees) at 9 MPH (8 knots; 4.1 m/s)
Visibility: 6 or more miles (10+ km)
Ceiling: ceiling and visibility are OK
Clouds: unknown
Weather: no significant weather observed at this time

METAR text: HELX 181900Z 30007KT CAVOK 33/15 Q1006 NOSIG
Conditions at: HELX (LUXOR (CIV/MIL) , EG) observed 1900 UTC 18 August 2019
Temperature: 33.0°C (91°F)
Dewpoint: 15.0°C (59°F) [RH = 34%]
Pressure (altimeter): 29.70 inches Hg (1006.0 mb)
Winds: from the WNW (300 degrees) at 8 MPH (7 knots; 3.6 m/s)
Visibility: 6 or more miles (10+ km)
Ceiling: ceiling and visibility are OK
Clouds: unknown
Weather: no significant weather observed at this time

METAR text: HELX 181800Z 30008KT CAVOK 34/14 Q1006 NOSIG
Conditions at: HELX (LUXOR (CIV/MIL) , EG) observed 1800 UTC 18 August 2019
Temperature: 34.0°C (93°F)
Dewpoint: 14.0°C (57°F) [RH = 30%]
Pressure (altimeter): 29.70 inches Hg (1006.0 mb)
Winds: from the WNW (300 degrees) at 9 MPH (8 knots; 4.1 m/s)
Visibility: 6 or more miles (10+ km)
Ceiling: ceiling and visibility are OK
Clouds: unknown
Weather: no significant weather observed at this time

METAR text: HELX 181700Z 29005KT CAVOK 35/14 Q1005 NOSIG
Conditions at: HELX (LUXOR (CIV/MIL) , EG) observed 1700 UTC 18 August 2019
Temperature: 35.0°C (95°F)
Dewpoint: 14.0°C (57°F) [RH = 28%]
Pressure (altimeter): 29.68 inches Hg (1005.0 mb)
Winds: from the WNW (290 degrees) at 6 MPH (5 knots; 2.6 m/s)
Visibility: 6 or more miles (10+ km)
Ceiling: ceiling and visibility are OK
Clouds: unknown
Weather: no significant weather observed at this time

METAR text: HELX 181600Z 30009KT CAVOK 36/16 Q1005 NOSIG
Conditions at: HELX (LUXOR (CIV/MIL) , EG) observed 1600 UTC 18 August 2019
Temperature: 36.0°C (97°F)
Dewpoint: 16.0°C (61°F) [RH = 31%]
Pressure (altimeter): 29.68 inches Hg (1005.0 mb)
Winds: from the WNW (300 degrees) at 10 MPH (9 knots; 4.6 m/s)
Visibility: 6 or more miles (10+ km)
Ceiling: ceiling and visibility are OK
Clouds: unknown
Weather: no significant weather observed at this time

METAR text: HELX 181500Z 31010KT CAVOK 38/16 Q1005 NOSIG
Conditions at: HELX (LUXOR (CIV/MIL) , EG) observed 1500 UTC 18 August 2019
Temperature: 38.0°C (100°F)
Dewpoint: 16.0°C (61°F) [RH = 27%]
Pressure (altimeter): 29.68 inches Hg (1005.0 mb)
Winds: from the NW (310 degrees) at 12 MPH (10 knots; 5.1 m/s)
Visibility: 6 or more miles (10+ km)
Ceiling: ceiling and visibility are OK
Clouds: unknown
Weather: no significant weather observed at this time

METAR text: HELX 181400Z WIND 300/13KT WEATHER CAVOK T 39 DP 16 Q1005 NOSIG
Conditions at: HELX (LUXOR (CIV/MIL) , EG) observed 1400 UTC 18 August 2019
Temperature: missing
Dewpoint: missing
Pressure (altimeter): 29.68 inches Hg (1005.0 mb)
Winds: missing
Visibility: 6 or more miles (10+ km)
Ceiling: ceiling and visibility are OK
Clouds: unknown
Weather: no significant weather observed at this time

METAR text: HELX 181300Z 31009KT CAVOK 40/18 Q1005 NOSIG
Conditions at: HELX (LUXOR (CIV/MIL) , EG) observed 1300 UTC 18 August 2019
Temperature: 40.0°C (104°F)
Dewpoint: 18.0°C (64°F) [RH = 28%]
Pressure (altimeter): 29.68 inches Hg (1005.0 mb)
Winds: from the NW (310 degrees) at 10 MPH (9 knots; 4.6 m/s)
Visibility: 6 or more miles (10+ km)
Ceiling: ceiling and visibility are OK
Clouds: unknown
Weather: no significant weather observed at this time

METAR text: HELX 181200Z WIND 310/09KT WEATHER CAVOK T 40 DP 18 Q1005 NOSIG
Conditions at: HELX (LUXOR (CIV/MIL) , EG) observed 1200 UTC 18 August 2019
Temperature: missing
Dewpoint: missing
Pressure (altimeter): 29.68 inches Hg (1005.0 mb)
Winds: missing
Visibility: 6 or more miles (10+ km)
Ceiling: ceiling and visibility are OK
Clouds: unknown
Weather: no significant weather observed at this time

METAR text: HELX 181100Z 32007KT CAVOK 39/17 Q1006 NOSIG
Conditions at: HELX (LUXOR (CIV/MIL) , EG) observed 1100 UTC 18 August 2019
Temperature: 39.0°C (102°F)
Dewpoint: 17.0°C (63°F) [RH = 28%]
Pressure (altimeter): 29.70 inches Hg (1006.0 mb)
Winds: from the NW (320 degrees) at 8 MPH (7 knots; 3.6 m/s)
Visibility: 6 or more miles (10+ km)
Ceiling: ceiling and visibility are OK
Clouds: unknown
Weather: no significant weather observed at this time

METAR text: HELX 181000Z 32007KT CAVOK 39/17 Q1006 NOSIG
Conditions at: HELX (LUXOR (CIV/MIL) , EG) observed 1000 UTC 18 August 2019
Temperature: 39.0°C (102°F)
Dewpoint: 17.0°C (63°F) [RH = 28%]
Pressure (altimeter): 29.70 inches Hg (1006.0 mb)
Winds: from the NW (320 degrees) at 8 MPH (7 knots; 3.6 m/s)
Visibility: 6 or more miles (10+ km)
Ceiling: ceiling and visibility are OK
Clouds: unknown
Weather: no significant weather observed at this time

METAR text: HELX 180950Z 32007KT CAVOK 39/17 Q1006
Conditions at: HELX (LUXOR (CIV/MIL) , EG) observed 0950 UTC 18 August 2019
Temperature: 39.0°C (102°F)
Dewpoint: 17.0°C (63°F) [RH = 28%]
Pressure (altimeter): 29.70 inches Hg (1006.0 mb)
Winds: from the NW (320 degrees) at 8 MPH (7 knots; 3.6 m/s)
Visibility: 6 or more miles (10+ km)
Ceiling: ceiling and visibility are OK
Clouds: unknown
Weather: no significant weather observed at this time

METAR text: HELX 180900Z 35007KT CAVOK 38/18 Q1007 NOSIG
Conditions at: HELX (LUXOR (CIV/MIL) , EG) observed 0900 UTC 18 August 2019
Temperature: 38.0°C (100°F)
Dewpoint: 18.0°C (64°F) [RH = 31%]
Pressure (altimeter): 29.73 inches Hg (1007.0 mb)
Winds: from the N (350 degrees) at 8 MPH (7 knots; 3.6 m/s)
Visibility: 6 or more miles (10+ km)
Ceiling: ceiling and visibility are OK
Clouds: unknown
Weather: no significant weather observed at this time

METAR text: HELX 180800Z 03004KT CAVOK 36/18 Q1007 NOSIG
Conditions at: HELX (LUXOR (CIV/MIL) , EG) observed 0800 UTC 18 August 2019
Temperature: 36.0°C (97°F)
Dewpoint: 18.0°C (64°F) [RH = 35%]
Pressure (altimeter): 29.73 inches Hg (1007.0 mb)
Winds: from the NNE (30 degrees) at 5 MPH (4 knots; 2.1 m/s)
Visibility: 6 or more miles (10+ km)
Ceiling: ceiling and visibility are OK
Clouds: unknown
Weather: no significant weather observed at this time

METAR text: HELX 180700Z 04003KT CAVOK 36/16 Q1007 NOSIG
Conditions at: HELX (LUXOR (CIV/MIL) , EG) observed 0700 UTC 18 August 2019
Temperature: 36.0°C (97°F)
Dewpoint: 16.0°C (61°F) [RH = 31%]
Pressure (altimeter): 29.73 inches Hg (1007.0 mb)
Winds: from the NE (40 degrees) at 3 MPH (3 knots; 1.5 m/s)
Visibility: 6 or more miles (10+ km)
Ceiling: ceiling and visibility are OK
Clouds: unknown
Weather: no significant weather observed at this time

METAR text: HELX 180600Z 10002KT CAVOK 34/14 Q1007 NOSIG
Conditions at: HELX (LUXOR (CIV/MIL) , EG) observed 0600 UTC 18 August 2019
Temperature: 34.0°C (93°F)
Dewpoint: 14.0°C (57°F) [RH = 30%]
Pressure (altimeter): 29.73 inches Hg (1007.0 mb)
Winds: from the E (100 degrees) at 2 MPH (2 knots; 1.0 m/s)
Visibility: 6 or more miles (10+ km)
Ceiling: ceiling and visibility are OK
Clouds: unknown
Weather: no significant weather observed at this time

METAR text: HELX 180500Z 00000KT CAVOK 31/13 Q1007 NOSIG
Conditions at: HELX (LUXOR (CIV/MIL) , EG) observed 0500 UTC 18 August 2019
Temperature: 31.0°C (88°F)
Dewpoint: 13.0°C (55°F) [RH = 33%]
Pressure (altimeter): 29.73 inches Hg (1007.0 mb)
Winds: calm
Visibility: 6 or more miles (10+ km)
Ceiling: ceiling and visibility are OK
Clouds: unknown
Weather: no significant weather observed at this time

METAR text: HELX 180400Z 00000KT CAVOK 29/13 Q1006 NOSIG
Conditions at: HELX (LUXOR (CIV/MIL) , EG) observed 0400 UTC 18 August 2019
Temperature: 29.0°C (84°F)
Dewpoint: 13.0°C (55°F) [RH = 37%]
Pressure (altimeter): 29.70 inches Hg (1006.0 mb)
Winds: calm
Visibility: 6 or more miles (10+ km)
Ceiling: ceiling and visibility are OK
Clouds: unknown
Weather: no significant weather observed at this time

METAR text: HELX 180300Z 00000KT CAVOK 28/10 Q1006 NOSIG
Conditions at: HELX (LUXOR (CIV/MIL) , EG) observed 0300 UTC 18 August 2019
Temperature: 28.0°C (82°F)
Dewpoint: 10.0°C (50°F) [RH = 32%]
Pressure (altimeter): 29.70 inches Hg (1006.0 mb)
Winds: calm
Visibility: 6 or more miles (10+ km)
Ceiling: ceiling and visibility are OK
Clouds: unknown
Weather: no significant weather observed at this time

METAR text: HELX 180200Z 16002KT CAVOK 30/11 Q1005 NOSIG
Conditions at: HELX (LUXOR (CIV/MIL) , EG) observed 0200 UTC 18 August 2019
Temperature: 30.0°C (86°F)
Dewpoint: 11.0°C (52°F) [RH = 31%]
Pressure (altimeter): 29.68 inches Hg (1005.0 mb)
Winds: from the SSE (160 degrees) at 2 MPH (2 knots; 1.0 m/s)
Visibility: 6 or more miles (10+ km)
Ceiling: ceiling and visibility are OK
Clouds: unknown
Weather: no significant weather observed at this time

METAR text: HELX 180100Z 00000KT CAVOK 29/11 Q1005 NOSIG
Conditions at: HELX (LUXOR (CIV/MIL) , EG) observed 0100 UTC 18 August 2019
Temperature: 29.0°C (84°F)
Dewpoint: 11.0°C (52°F) [RH = 33%]
Pressure (altimeter): 29.68 inches Hg (1005.0 mb)
Winds: calm
Visibility: 6 or more miles (10+ km)
Ceiling: ceiling and visibility are OK
Clouds: unknown
Weather: no significant weather observed at this time

METAR text: HELX 180000Z 15002KT CAVOK 31/12 Q1005 NOSIG
Conditions at: HELX (LUXOR (CIV/MIL) , EG) observed 0000 UTC 18 August 2019
Temperature: 31.0°C (88°F)
Dewpoint: 12.0°C (54°F) [RH = 31%]
Pressure (altimeter): 29.68 inches Hg (1005.0 mb)
Winds: from the SSE (150 degrees) at 2 MPH (2 knots; 1.0 m/s)
Visibility: 6 or more miles (10+ km)
Ceiling: ceiling and visibility are OK
Clouds: unknown
Weather: no significant weather observed at this time

METAR text: HELX 172300Z 00000KT CAVOK 32/13 Q1006 NOSIG
Conditions at: HELX (LUXOR (CIV/MIL) , EG) observed 2300 UTC 17 August 2019
Temperature: 32.0°C (90°F)
Dewpoint: 13.0°C (55°F) [RH = 32%]
Pressure (altimeter): 29.70 inches Hg (1006.0 mb)
Winds: calm
Visibility: 6 or more miles (10+ km)
Ceiling: ceiling and visibility are OK
Clouds: unknown
Weather: no significant weather observed at this time

METAR text: HELX 172200Z 30002KT CAVOK 33/13 Q1006 NOSIG
Conditions at: HELX (LUXOR (CIV/MIL) , EG) observed 2200 UTC 17 August 2019
Temperature: 33.0°C (91°F)
Dewpoint: 13.0°C (55°F) [RH = 30%]
Pressure (altimeter): 29.70 inches Hg (1006.0 mb)
Winds: from the WNW (300 degrees) at 2 MPH (2 knots; 1.0 m/s)
Visibility: 6 or more miles (10+ km)
Ceiling: ceiling and visibility are OK
Clouds: unknown
Weather: no significant weather observed at this time

METAR text: HELX 172100Z 00000KT CAVOK 34/13 Q1006 NOSIG
Conditions at: HELX (LUXOR (CIV/MIL) , EG) observed 2100 UTC 17 August 2019
Temperature: 34.0°C (93°F)
Dewpoint: 13.0°C (55°F) [RH = 28%]
Pressure (altimeter): 29.70 inches Hg (1006.0 mb)
Winds: calm
Visibility: 6 or more miles (10+ km)
Ceiling: ceiling and visibility are OK
Clouds: unknown
Weather: no significant weather observed at this time

METAR text: HELX 172000Z 28003KT CAVOK 36/13 Q1006 NOSIG
Conditions at: HELX (LUXOR (CIV/MIL) , EG) observed 2000 UTC 17 August 2019
Temperature: 36.0°C (97°F)
Dewpoint: 13.0°C (55°F) [RH = 25%]
Pressure (altimeter): 29.70 inches Hg (1006.0 mb)
Winds: from the W (280 degrees) at 3 MPH (3 knots; 1.5 m/s)
Visibility: 6 or more miles (10+ km)
Ceiling: ceiling and visibility are OK
Clouds: unknown
Weather: no significant weather observed at this time

METAR text: HELX 171900Z 28006KT CAVOK 35/14 Q1005 NOSIG
Conditions at: HELX (LUXOR (CIV/MIL) , EG) observed 1900 UTC 17 August 2019
Temperature: 35.0°C (95°F)
Dewpoint: 14.0°C (57°F) [RH = 28%]
Pressure (altimeter): 29.68 inches Hg (1005.0 mb)
Winds: from the W (280 degrees) at 7 MPH (6 knots; 3.1 m/s)
Visibility: 6 or more miles (10+ km)
Ceiling: ceiling and visibility are OK
Clouds: unknown
Weather: no significant weather observed at this time

METAR text: HELX 171800Z 30008KT CAVOK 37/14 Q1005 NOSIG
Conditions at: HELX (LUXOR (CIV/MIL) , EG) observed 1800 UTC 17 August 2019
Temperature: 37.0°C (99°F)
Dewpoint: 14.0°C (57°F) [RH = 25%]
Pressure (altimeter): 29.68 inches Hg (1005.0 mb)
Winds: from the WNW (300 degrees) at 9 MPH (8 knots; 4.1 m/s)
Visibility: 6 or more miles (10+ km)
Ceiling: ceiling and visibility are OK
Clouds: unknown
Weather: no significant weather observed at this time

METAR text: HELX 171700Z 30009KT CAVOK 37/14 Q1004 NOSIG
Conditions at: HELX (LUXOR (CIV/MIL) , EG) observed 1700 UTC 17 August 2019
Temperature: 37.0°C (99°F)
Dewpoint: 14.0°C (57°F) [RH = 25%]
Pressure (altimeter): 29.65 inches Hg (1004.0 mb)
Winds: from the WNW (300 degrees) at 10 MPH (9 knots; 4.6 m/s)
Visibility: 6 or more miles (10+ km)
Ceiling: ceiling and visibility are OK
Clouds: unknown
Weather: no significant weather observed at this time

METAR text: HELX 171600Z 29006KT CAVOK 39/15 Q1004 NOSIG
Conditions at: HELX (LUXOR (CIV/MIL) , EG) observed 1600 UTC 17 August 2019
Temperature: 39.0°C (102°F)
Dewpoint: 15.0°C (59°F) [RH = 24%]
Pressure (altimeter): 29.65 inches Hg (1004.0 mb)
Winds: from the WNW (290 degrees) at 7 MPH (6 knots; 3.1 m/s)
Visibility: 6 or more miles (10+ km)
Ceiling: ceiling and visibility are OK
Clouds: unknown
Weather: no significant weather observed at this time

METAR text: HELX 171500Z 30012KT CAVOK 40/14 Q1004 NOSIG
Conditions at: HELX (LUXOR (CIV/MIL) , EG) observed 1500 UTC 17 August 2019
Temperature: 40.0°C (104°F)
Dewpoint: 14.0°C (57°F) [RH = 22%]
Pressure (altimeter): 29.65 inches Hg (1004.0 mb)
Winds: from the WNW (300 degrees) at 14 MPH (12 knots; 6.2 m/s)
Visibility: 6 or more miles (10+ km)
Ceiling: ceiling and visibility are OK
Clouds: unknown
Weather: no significant weather observed at this time

METAR text: HELX 171400Z 30013KT CAVOK 41/17 Q1004 NOSIG
Conditions at: HELX (LUXOR (CIV/MIL) , EG) observed 1400 UTC 17 August 2019
Temperature: 41.0°C (106°F)
Dewpoint: 17.0°C (63°F) [RH = 25%]
Pressure (altimeter): 29.65 inches Hg (1004.0 mb)
Winds: from the WNW (300 degrees) at 15 MPH (13 knots; 6.7 m/s)
Visibility: 6 or more miles (10+ km)
Ceiling: ceiling and visibility are OK
Clouds: unknown
Weather: no significant weather observed at this time

METAR text: HELX 171300Z 30012KT CAVOK 42/17 Q1005 NOSIG
Conditions at: HELX (LUXOR (CIV/MIL) , EG) observed 1300 UTC 17 August 2019
Temperature: 42.0°C (108°F)
Dewpoint: 17.0°C (63°F) [RH = 24%]
Pressure (altimeter): 29.68 inches Hg (1005.0 mb)
Winds: from the WNW (300 degrees) at 14 MPH (12 knots; 6.2 m/s)
Visibility: 6 or more miles (10+ km)
Ceiling: ceiling and visibility are OK
Clouds: unknown
Weather: no significant weather observed at this time

METAR text: HELX 171200Z 30008KT CAVOK 43/15 Q1005 NOSIG
Conditions at: HELX (LUXOR (CIV/MIL) , EG) observed 1200 UTC 17 August 2019
Temperature: 43.0°C (109°F)
Dewpoint: 15.0°C (59°F) [RH = 20%]
Pressure (altimeter): 29.68 inches Hg (1005.0 mb)
Winds: from the WNW (300 degrees) at 9 MPH (8 knots; 4.1 m/s)
Visibility: 6 or more miles (10+ km)
Ceiling: ceiling and visibility are OK
Clouds: unknown
Weather: no significant weather observed at this time

Forecast for: HELX (LUXOR (CIV/MIL) , EG)
Text: TAF HELX 182300Z 1900/2006 31010KT CAVOK
Forecast period: 0000 UTC 19 August 2019 to 0600 UTC 20 August 2019
Forecast type: FROM: standard forecast or significant change
Winds: from the NW (310 degrees) at 12 MPH (10 knots; 5.1 m/s)
Visibility: 6 or more miles 10+ km)
Ceiling: unknown
Clouds: missing
Weather: NSW  (no significant weather)